createdAt,value
2019-02-17T00:00:31.058Z,89.90
2019-02-17T00:03:18.838Z,90.00
2019-02-17T00:05:47.401Z,89.90
2019-02-17T00:08:15.886Z,90.00
2019-02-17T00:11:03.643Z,90.10
2019-02-17T00:13:44.758Z,90.00
2019-02-17T00:16:25.728Z,90.10
2019-02-17T00:18:54.230Z,90.10
2019-02-17T00:21:22.691Z,90.20
2019-02-17T00:26:46.547Z,90.30
2019-02-17T00:32:03.847Z,90.50
2019-02-17T00:34:32.304Z,90.50
2019-02-17T00:37:20.659Z,90.60
2019-02-17T00:39:49.082Z,90.70
2019-02-17T00:42:17.504Z,90.80
2019-02-17T00:44:45.951Z,90.90
2019-02-17T00:47:14.405Z,91.00
2019-02-17T00:49:55.236Z,91.00
2019-02-17T00:52:23.680Z,91.10
2019-02-17T00:54:52.111Z,91.20
2019-02-17T00:57:22.203Z,91.20
2019-02-17T00:59:50.660Z,91.30
2019-02-17T01:02:38.424Z,91.40
2019-02-17T01:05:07.456Z,91.40
2019-02-17T01:07:35.881Z,91.50
2019-02-17T01:10:06.571Z,91.60
2019-02-17T01:12:34.994Z,91.60
2019-02-17T01:15:03.707Z,91.80
2019-02-17T01:17:32.129Z,91.80
2019-02-17T01:20:00.579Z,91.90
2019-02-17T01:22:48.368Z,91.80
2019-02-17T01:25:16.793Z,91.80
2019-02-17T01:27:45.249Z,91.80
2019-02-17T01:30:32.999Z,91.90
2019-02-17T01:35:56.935Z,91.90
2019-02-17T01:38:44.726Z,91.90
2019-02-17T01:41:25.160Z,91.90
2019-02-17T01:44:05.705Z,92.30
2019-02-17T01:46:34.125Z,92.00
2019-02-17T01:49:02.575Z,92.40
2019-02-17T01:51:50.360Z,92.20
2019-02-17T01:54:38.184Z,92.10
2019-02-17T01:57:06.603Z,92.10
2019-02-17T01:59:35.046Z,92.20
2019-02-17T02:02:03.496Z,92.30
2019-02-17T02:04:31.947Z,92.40
2019-02-17T02:07:00.360Z,92.40
2019-02-17T02:09:48.148Z,92.50
2019-02-17T02:12:16.591Z,92.40
2019-02-17T02:14:45.036Z,92.50
2019-02-17T02:17:13.451Z,92.50
2019-02-17T02:19:41.908Z,92.60
2019-02-17T02:22:12.206Z,92.50
2019-02-17T02:24:40.668Z,92.50
2019-02-17T02:27:09.091Z,92.60
2019-02-17T02:29:41.138Z,92.60
2019-02-17T02:32:07.695Z,92.60
2019-02-17T02:34:36.149Z,92.60
2019-02-17T02:37:23.934Z,92.70
2019-02-17T02:39:52.393Z,92.80
2019-02-17T02:42:40.161Z,92.80
2019-02-17T02:45:10.639Z,92.80
2019-02-17T02:47:39.093Z,92.90
2019-02-17T02:50:10.486Z,92.90
2019-02-17T02:52:39.072Z,93.00
2019-02-17T02:55:08.574Z,93.10
2019-02-17T02:57:56.323Z,93.10
2019-02-17T03:00:24.834Z,93.10
2019-02-17T03:03:12.623Z,93.10
2019-02-17T03:05:42.912Z,93.10
2019-02-17T03:08:30.704Z,93.20
2019-02-17T03:10:59.155Z,93.20
2019-02-17T03:13:27.595Z,93.30
2019-02-17T03:16:15.444Z,93.40
2019-02-17T03:18:43.869Z,93.30
2019-02-17T03:21:12.323Z,93.40
2019-02-17T03:24:00.119Z,93.60
2019-02-17T03:26:28.531Z,93.50
2019-02-17T03:29:16.323Z,93.60
2019-02-17T03:31:44.744Z,93.60
2019-02-17T03:34:32.528Z,93.60
2019-02-17T03:37:00.992Z,93.60
2019-02-17T03:39:29.454Z,93.70
2019-02-17T03:41:57.970Z,93.70
2019-02-17T03:44:26.464Z,93.80
2019-02-17T03:46:54.924Z,93.80
2019-02-17T03:49:35.698Z,93.80
2019-02-17T03:52:04.107Z,93.70
2019-02-17T03:54:32.592Z,93.80
2019-02-17T03:57:01.033Z,93.80
2019-02-17T03:59:48.828Z,93.80
2019-02-17T04:02:17.259Z,93.80
2019-02-17T04:04:45.780Z,93.70
2019-02-17T04:07:14.208Z,93.80
2019-02-17T04:09:42.628Z,93.90
2019-02-17T04:12:11.077Z,93.90
2019-02-17T04:14:39.613Z,93.90
2019-02-17T04:17:08.042Z,94.00
2019-02-17T04:19:36.486Z,94.10
2019-02-17T04:22:05.003Z,94.10
2019-02-17T04:24:34.408Z,94.00
2019-02-17T04:27:02.829Z,94.10
2019-02-17T04:29:31.283Z,94.20
2019-02-17T04:32:19.079Z,94.20
2019-02-17T04:34:47.502Z,94.20
2019-02-17T04:37:35.284Z,94.30
2019-02-17T04:40:04.769Z,94.30
2019-02-17T04:42:33.194Z,94.30
2019-02-17T04:45:02.560Z,94.40
2019-02-17T04:47:31.457Z,94.40
2019-02-17T04:50:19.515Z,94.50
2019-02-17T04:52:48.259Z,94.50
2019-02-17T04:55:16.703Z,94.60
2019-02-17T04:57:45.126Z,94.60
2019-02-17T05:00:40.325Z,94.70
2019-02-17T05:03:22.434Z,94.60
2019-02-17T05:05:50.864Z,94.70
2019-02-17T05:08:19.314Z,94.80
2019-02-17T05:10:47.736Z,94.80
2019-02-17T05:13:16.184Z,94.80
2019-02-17T05:15:44.602Z,94.80
2019-02-17T05:18:32.389Z,94.90
2019-02-17T05:21:00.808Z,94.90
2019-02-17T05:23:48.597Z,95.00
2019-02-17T05:26:17.054Z,95.10
2019-02-17T05:29:04.840Z,95.20
2019-02-17T05:31:33.264Z,95.30
2019-02-17T05:34:01.733Z,95.40
2019-02-17T05:36:49.575Z,95.40
2019-02-17T05:39:18.005Z,95.40
2019-02-17T05:41:46.464Z,95.50
2019-02-17T05:44:34.284Z,95.60
2019-02-17T05:47:02.730Z,95.60
2019-02-17T05:49:31.148Z,95.60
2019-02-17T05:51:59.611Z,95.60
2019-02-17T05:54:47.380Z,95.70
2019-02-17T05:57:15.818Z,95.70
2019-02-17T06:00:04.254Z,95.80
2019-02-17T06:02:32.703Z,95.80
2019-02-17T06:05:01.126Z,95.90
2019-02-17T06:10:25.079Z,95.90
2019-02-17T06:12:53.505Z,96.00
2019-02-17T06:15:41.334Z,96.00
2019-02-17T06:18:09.751Z,96.10
2019-02-17T06:20:38.171Z,96.10
2019-02-17T06:23:06.615Z,96.00
2019-02-17T06:25:35.261Z,96.10
2019-02-17T06:28:09.390Z,96.10
2019-02-17T06:30:37.846Z,96.10
2019-02-17T06:33:06.268Z,96.20
2019-02-17T06:35:34.712Z,96.30
2019-02-17T06:38:03.147Z,96.40
2019-02-17T06:40:51.008Z,96.40
2019-02-17T06:43:19.433Z,96.40
2019-02-17T06:46:08.193Z,96.60
2019-02-17T06:48:36.615Z,96.50
2019-02-17T06:51:05.068Z,96.90
2019-02-17T06:53:33.515Z,96.60
2019-02-17T06:56:19.739Z,96.70
2019-02-17T06:59:00.445Z,96.80
2019-02-17T07:01:40.812Z,96.80
2019-02-17T07:04:09.274Z,96.80
2019-02-17T07:06:39.324Z,96.90
2019-02-17T07:09:07.772Z,97.00
2019-02-17T07:11:56.769Z,97.00
2019-02-17T07:14:25.756Z,97.00
2019-02-17T07:17:13.539Z,97.00
2019-02-17T07:19:42.000Z,97.10
2019-02-17T07:22:10.452Z,97.10
2019-02-17T07:24:38.915Z,97.20
2019-02-17T07:27:26.664Z,97.10
2019-02-17T07:30:07.552Z,97.10
2019-02-17T07:32:35.980Z,97.10
2019-02-17T07:35:05.363Z,97.20
2019-02-17T07:37:34.094Z,97.20
2019-02-17T07:40:03.095Z,97.20
2019-02-17T07:42:50.860Z,97.20
2019-02-17T07:45:19.323Z,97.20
2019-02-17T07:47:47.745Z,97.30
2019-02-17T07:50:17.675Z,97.20
2019-02-17T07:52:46.091Z,97.30
2019-02-17T07:55:14.544Z,97.20
2019-02-17T07:57:42.978Z,97.20
2019-02-17T08:00:12.640Z,97.20
2019-02-17T08:02:41.085Z,97.20
2019-02-17T08:05:28.848Z,97.10
2019-02-17T08:08:10.274Z,97.00
2019-02-17T08:10:51.104Z,97.00
2019-02-17T08:13:19.556Z,97.00
2019-02-17T08:16:07.335Z,97.00
2019-02-17T08:18:35.783Z,97.00
2019-02-17T08:21:23.543Z,97.00
2019-02-17T08:23:52.000Z,97.00
2019-02-17T08:26:20.423Z,96.90
2019-02-17T08:28:48.871Z,96.90
2019-02-17T08:31:17.690Z,96.90
2019-02-17T08:33:46.198Z,96.90
2019-02-17T08:36:14.660Z,96.80
2019-02-17T08:38:43.083Z,96.80
2019-02-17T08:41:11.533Z,96.80
2019-02-17T08:43:39.944Z,96.80
2019-02-17T08:46:08.386Z,96.80
2019-02-17T08:48:36.826Z,96.80
2019-02-17T08:51:05.275Z,96.80
2019-02-17T08:53:33.736Z,96.70
2019-02-17T08:56:02.153Z,96.70
2019-02-17T08:58:49.940Z,96.70
2019-02-17T09:01:18.356Z,96.90
2019-02-17T09:03:46.808Z,96.60
2019-02-17T09:06:15.231Z,96.60
2019-02-17T09:08:43.743Z,96.60
2019-02-17T09:11:12.164Z,96.50
2019-02-17T09:13:40.612Z,96.50
2019-02-17T09:16:09.036Z,96.50
2019-02-17T09:18:37.486Z,96.40
2019-02-17T09:21:05.897Z,96.40
2019-02-17T09:23:34.340Z,96.40
2019-02-17T09:26:02.767Z,96.30
2019-02-17T09:28:31.233Z,96.20
2019-02-17T09:31:19.087Z,96.20
2019-02-17T09:33:47.516Z,96.20
2019-02-17T09:36:15.967Z,96.20
2019-02-17T09:38:44.410Z,96.30
2019-02-17T09:41:12.863Z,96.30
2019-02-17T09:43:41.288Z,96.30
2019-02-17T09:46:09.708Z,96.30
2019-02-17T09:48:57.500Z,96.70
2019-02-17T09:51:25.917Z,96.30
2019-02-17T09:53:54.352Z,96.30
2019-02-17T09:56:22.804Z,96.30
2019-02-17T09:58:52.885Z,96.20
2019-02-17T10:01:21.304Z,96.20
2019-02-17T10:03:49.786Z,96.20
2019-02-17T10:06:18.227Z,96.30
2019-02-17T10:08:46.664Z,96.40
2019-02-17T10:11:15.087Z,96.40
2019-02-17T10:13:43.537Z,96.30
2019-02-17T10:16:11.951Z,96.40
2019-02-17T10:18:40.399Z,96.40
2019-02-17T10:21:28.162Z,96.30
2019-02-17T10:23:56.715Z,96.20
2019-02-17T10:26:25.157Z,96.50
2019-02-17T10:28:53.570Z,96.10
2019-02-17T10:31:22.067Z,96.00
2019-02-17T10:33:50.520Z,95.80
2019-02-17T10:36:38.307Z,95.80
2019-02-17T10:39:07.100Z,95.70
2019-02-17T10:41:35.551Z,95.20
2019-02-17T10:44:04.091Z,95.10
2019-02-17T10:46:32.544Z,95.00
2019-02-17T10:49:00.965Z,94.90
2019-02-17T10:51:48.749Z,94.80
2019-02-17T10:54:17.175Z,94.70
2019-02-17T10:57:04.969Z,94.60
2019-02-17T10:59:33.409Z,94.40
2019-02-17T11:02:03.146Z,94.20
2019-02-17T11:04:31.609Z,94.10
2019-02-17T11:07:02.763Z,94.10
2019-02-17T11:09:31.207Z,93.90
2019-02-17T11:11:59.703Z,93.90
2019-02-17T11:14:28.168Z,93.80
2019-02-17T11:16:56.590Z,93.80
2019-02-17T11:19:25.039Z,93.60
2019-02-17T11:21:53.488Z,93.50
2019-02-17T11:24:41.271Z,93.40
2019-02-17T11:27:22.008Z,93.30
2019-02-17T11:29:50.454Z,93.30
2019-02-17T11:32:38.249Z,93.10
2019-02-17T11:35:07.275Z,92.90
2019-02-17T11:37:35.749Z,93.00
2019-02-17T11:40:23.603Z,92.80
2019-02-17T11:42:52.139Z,92.60
2019-02-17T11:45:39.910Z,92.60
2019-02-17T11:48:08.359Z,92.40
2019-02-17T11:50:36.788Z,92.20
2019-02-17T11:53:05.262Z,92.00
2019-02-17T11:55:33.687Z,91.90
2019-02-17T11:58:02.143Z,91.60
2019-02-17T12:00:30.573Z,91.30
2019-02-17T12:03:07.511Z,91.20
2019-02-17T12:05:29.203Z,91.10
2019-02-17T12:07:57.747Z,90.90
2019-02-17T12:10:26.198Z,90.60
2019-02-17T12:12:54.632Z,90.30
2019-02-17T12:15:23.095Z,90.00
2019-02-17T12:17:52.011Z,89.30
2019-02-17T12:20:23.261Z,88.90
2019-02-17T12:22:56.867Z,88.20
2019-02-17T12:25:46.678Z,87.20
2019-02-17T12:28:25.639Z,86.60
2019-02-17T12:31:15.079Z,86.50
2019-02-17T12:33:43.505Z,85.50
2019-02-17T12:36:31.295Z,85.20
2019-02-17T12:38:59.718Z,84.40
2019-02-17T12:41:28.179Z,84.00
2019-02-17T12:43:56.620Z,83.50
2019-02-17T12:46:25.123Z,83.20
2019-02-17T12:48:53.572Z,83.30
2019-02-17T12:51:22.046Z,82.20
2019-02-17T12:53:50.524Z,81.20
2019-02-17T12:56:18.973Z,81.00
2019-02-17T12:58:47.383Z,80.30
2019-02-17T13:01:15.840Z,79.80
2019-02-17T13:03:44.288Z,79.70
2019-02-17T13:06:12.707Z,79.40
2019-02-17T13:08:41.165Z,79.30
2019-02-17T13:11:09.621Z,78.90
2019-02-17T13:13:38.043Z,78.10
2019-02-17T13:16:25.827Z,77.70
2019-02-17T13:18:54.258Z,77.40
2019-02-17T13:21:42.065Z,78.40
2019-02-17T13:24:10.511Z,77.40
2019-02-17T13:26:38.946Z,77.70
2019-02-17T13:29:07.380Z,77.90
2019-02-17T13:31:35.823Z,77.80
2019-02-17T13:34:04.259Z,77.30
2019-02-17T13:36:32.784Z,77.20
2019-02-17T13:39:01.370Z,77.00
2019-02-17T13:41:29.845Z,76.10
2019-02-17T13:43:58.262Z,76.30
2019-02-17T13:46:26.724Z,76.10
2019-02-17T13:49:14.486Z,75.40
2019-02-17T13:51:42.946Z,74.90
2019-02-17T13:54:11.366Z,75.30
2019-02-17T13:56:39.833Z,75.20
2019-02-17T13:59:08.314Z,75.30
2019-02-17T14:01:56.145Z,75.70
2019-02-17T14:04:43.944Z,76.00
2019-02-17T14:07:12.463Z,75.60
2019-02-17T14:10:00.381Z,74.40
2019-02-17T14:12:48.227Z,70.80
2019-02-17T14:15:19.262Z,66.90
2019-02-17T14:17:47.707Z,61.80
2019-02-17T14:20:21.788Z,59.10
2019-02-17T14:22:50.285Z,56.50
2019-02-17T14:25:38.080Z,53.80
2019-02-17T14:28:18.793Z,51.30
2019-02-17T14:30:47.218Z,49.40
2019-02-17T14:33:15.676Z,47.70
2019-02-17T14:35:44.100Z,46.70
2019-02-17T14:38:31.896Z,44.90
2019-02-17T14:41:19.676Z,44.20
2019-02-17T14:43:48.108Z,43.10
2019-02-17T14:46:16.572Z,42.80
2019-02-17T14:49:04.356Z,42.10
2019-02-17T14:51:45.295Z,42.20
2019-02-17T14:54:13.755Z,42.10
2019-02-17T14:57:01.556Z,42.40
2019-02-17T14:59:29.982Z,41.40
2019-02-17T15:02:17.768Z,41.70
2019-02-17T15:04:46.216Z,41.60
2019-02-17T15:07:14.672Z,41.90
2019-02-17T15:09:43.206Z,41.90
2019-02-17T15:12:24.044Z,41.90
2019-02-17T15:14:52.470Z,42.60
2019-02-17T15:17:40.418Z,42.80
2019-02-17T15:20:28.247Z,43.20
2019-02-17T15:25:50.898Z,43.20
2019-02-17T15:28:19.323Z,43.30
2019-02-17T15:30:48.156Z,43.40
2019-02-17T15:33:36.189Z,43.50
2019-02-17T15:36:17.512Z,44.00
2019-02-17T15:38:46.424Z,44.70
2019-02-17T15:41:15.258Z,45.10
2019-02-17T15:44:03.325Z,45.80
2019-02-17T15:46:51.434Z,46.40
2019-02-17T15:49:32.718Z,46.70
2019-02-17T15:52:01.404Z,47.30
2019-02-17T15:54:30.252Z,48.20
2019-02-17T15:56:59.129Z,48.60
2019-02-17T15:59:27.865Z,49.40
2019-02-17T16:01:56.619Z,49.10
2019-02-17T16:04:28.483Z,49.40
2019-02-17T16:06:55.837Z,49.70
2019-02-17T16:09:43.911Z,50.60
2019-02-17T16:12:12.666Z,50.40
2019-02-17T16:15:00.751Z,50.80
2019-02-17T16:20:31.648Z,51.50
2019-02-17T16:23:00.441Z,51.90
2019-02-17T16:25:29.221Z,52.30
2019-02-17T16:27:57.970Z,52.80
2019-02-17T16:30:26.730Z,53.10
2019-02-17T16:32:55.446Z,53.50
2019-02-17T16:35:24.194Z,53.70
2019-02-17T16:37:52.669Z,54.10
2019-02-17T16:40:21.095Z,54.40
2019-02-17T16:42:50.012Z,54.90
2019-02-17T16:45:18.571Z,55.20
2019-02-17T16:47:46.995Z,55.60
2019-02-17T16:50:20.603Z,55.90
2019-02-17T16:52:49.061Z,56.20
2019-02-17T16:55:17.578Z,56.50
2019-02-17T16:57:46.027Z,56.90
2019-02-17T17:00:24.643Z,57.40
2019-02-17T17:03:12.433Z,57.70
2019-02-17T17:05:40.863Z,58.10
2019-02-17T17:08:28.643Z,58.50
2019-02-17T17:10:57.107Z,58.70
2019-02-17T17:13:25.567Z,59.10
2019-02-17T17:15:54.071Z,59.50
2019-02-17T17:18:22.598Z,59.80
2019-02-17T17:20:51.103Z,60.00
2019-02-17T17:23:38.940Z,60.50
2019-02-17T17:26:07.563Z,60.80
2019-02-17T17:28:36.071Z,61.20
2019-02-17T17:31:04.540Z,61.40
2019-02-17T17:33:33.037Z,61.80
2019-02-17T17:36:01.488Z,62.20
2019-02-17T17:38:29.934Z,62.60
2019-02-17T17:40:58.359Z,62.70
2019-02-17T17:43:26.815Z,63.00
2019-02-17T17:45:55.267Z,63.40
2019-02-17T17:48:23.687Z,63.70
2019-02-17T17:50:52.140Z,63.90
2019-02-17T17:53:20.592Z,64.20
2019-02-17T17:55:49.018Z,64.40
2019-02-17T17:58:17.468Z,64.60
2019-02-17T18:00:45.933Z,64.80
2019-02-17T18:03:14.352Z,65.10
2019-02-17T18:05:42.807Z,65.20
2019-02-17T18:08:11.237Z,65.30
2019-02-17T18:10:39.691Z,65.50
2019-02-17T18:13:08.147Z,65.60
2019-02-17T18:15:36.581Z,65.90
2019-02-17T18:18:05.112Z,66.20
2019-02-17T18:20:33.583Z,66.30
2019-02-17T18:23:02.006Z,66.40
2019-02-17T18:25:30.435Z,66.70
2019-02-17T18:27:58.871Z,66.70
2019-02-17T18:30:27.528Z,66.80
2019-02-17T18:32:55.984Z,66.90
2019-02-17T18:35:24.439Z,67.00
2019-02-17T18:37:52.904Z,67.30
2019-02-17T18:40:45.008Z,67.30
2019-02-17T18:46:26.503Z,67.40
2019-02-17T18:49:07.783Z,67.60
2019-02-17T18:51:36.227Z,67.70
2019-02-17T18:54:04.703Z,68.00
2019-02-17T18:56:33.143Z,68.10
2019-02-17T18:59:13.421Z,68.20
2019-02-17T19:01:41.835Z,68.20
2019-02-17T19:04:10.292Z,68.40
2019-02-17T19:06:38.716Z,68.60
2019-02-17T19:09:07.723Z,68.70
2019-02-17T19:11:36.153Z,68.90
2019-02-17T19:14:04.580Z,69.00
2019-02-17T19:16:52.364Z,69.10
2019-02-17T19:19:20.792Z,69.10
2019-02-17T19:21:49.256Z,69.20
2019-02-17T19:24:17.681Z,69.40
2019-02-17T19:26:46.113Z,69.50
2019-02-17T19:29:14.568Z,69.80
2019-02-17T19:31:43.039Z,69.90
2019-02-17T19:34:30.806Z,70.10
2019-02-17T19:36:59.261Z,70.20
2019-02-17T19:39:27.723Z,70.50
2019-02-17T19:41:56.142Z,70.70
2019-02-17T19:44:24.603Z,70.80
2019-02-17T19:46:53.038Z,71.00
2019-02-17T19:49:21.471Z,71.80
2019-02-17T19:51:49.899Z,71.70
2019-02-17T19:54:18.353Z,71.50
2019-02-17T19:56:46.946Z,71.70
2019-02-17T19:59:15.554Z,71.80
2019-02-17T20:01:43.981Z,72.00
2019-02-17T20:04:20.029Z,72.20
2019-02-17T20:06:48.563Z,72.20
2019-02-17T20:09:18.506Z,72.30
2019-02-17T20:11:46.998Z,72.30
2019-02-17T20:14:15.735Z,72.30
2019-02-17T20:16:44.407Z,72.50
2019-02-17T20:19:12.973Z,72.50
2019-02-17T20:21:41.715Z,72.60
2019-02-17T20:24:10.235Z,72.60
2019-02-17T20:26:57.992Z,72.70
2019-02-17T20:29:26.931Z,72.60
2019-02-17T20:31:55.397Z,72.60
2019-02-17T20:34:23.984Z,72.70
2019-02-17T20:36:52.791Z,72.80
2019-02-17T20:39:21.235Z,72.80
2019-02-17T20:41:49.701Z,72.80
2019-02-17T20:44:18.577Z,72.80
2019-02-17T20:46:47.070Z,72.90
2019-02-17T20:49:34.917Z,72.70
2019-02-17T20:52:03.368Z,72.60
2019-02-17T20:54:31.887Z,72.30
2019-02-17T20:57:00.480Z,72.30
2019-02-17T20:59:29.394Z,72.10
2019-02-17T21:01:58.146Z,72.10
2019-02-17T21:04:26.928Z,72.20
2019-02-17T21:06:55.968Z,72.60
2019-02-17T21:09:24.884Z,72.10
2019-02-17T21:11:53.772Z,71.80
2019-02-17T21:14:22.283Z,71.50
2019-02-17T21:20:07.682Z,70.70
2019-02-17T21:22:36.204Z,70.50
2019-02-17T21:25:24.122Z,70.30
2019-02-17T21:27:52.554Z,69.90
2019-02-17T21:30:40.327Z,69.60
2019-02-17T21:33:08.894Z,69.30
2019-02-17T21:35:37.355Z,69.00
2019-02-17T21:38:05.771Z,68.60
2019-02-17T21:40:34.207Z,68.60
2019-02-17T21:43:02.645Z,68.10
2019-02-17T21:45:33.552Z,67.60
2019-02-17T21:48:02.070Z,68.10
2019-02-17T21:50:30.503Z,67.20
2019-02-17T21:53:20.730Z,68.40
2019-02-17T21:55:48.572Z,68.40
2019-02-17T21:58:16.978Z,67.60
2019-02-17T22:00:45.435Z,67.60
2019-02-17T22:03:25.953Z,67.40
2019-02-17T22:05:54.360Z,67.20
2019-02-17T22:08:22.808Z,67.20
2019-02-17T22:10:51.233Z,67.10
2019-02-17T22:13:39.012Z,66.90
2019-02-17T22:16:07.458Z,66.60
2019-02-17T22:18:36.148Z,66.50
2019-02-17T22:21:23.962Z,66.50
2019-02-17T22:23:52.415Z,66.40
2019-02-17T22:26:40.204Z,66.20
2019-02-17T22:29:08.768Z,66.00
2019-02-17T22:31:56.526Z,66.10
2019-02-17T22:34:37.361Z,66.00
2019-02-17T22:37:05.774Z,65.90
2019-02-17T22:39:34.221Z,65.90
2019-02-17T22:42:02.704Z,66.00
2019-02-17T22:44:31.168Z,66.10
2019-02-17T22:46:59.626Z,66.20
2019-02-17T22:49:28.084Z,66.20
2019-02-17T22:51:56.504Z,66.30
2019-02-17T22:54:24.923Z,66.50
2019-02-17T22:56:54.506Z,66.70
2019-02-17T22:59:23.234Z,66.80
2019-02-17T23:02:12.027Z,67.80
2019-02-17T23:05:00.091Z,67.00
2019-02-17T23:07:28.528Z,67.00
2019-02-17T23:09:56.974Z,67.30
2019-02-17T23:12:25.389Z,67.50
2019-02-17T23:14:59.854Z,67.70
2019-02-17T23:17:28.283Z,67.60
2019-02-17T23:19:56.708Z,67.80
2019-02-17T23:22:25.161Z,68.00
2019-02-17T23:25:13.015Z,68.10
2019-02-17T23:27:41.461Z,68.20
2019-02-17T23:30:11.422Z,68.40
2019-02-17T23:32:39.921Z,68.60
2019-02-17T23:35:08.501Z,68.60
2019-02-17T23:37:36.936Z,68.90
2019-02-17T23:40:24.731Z,68.80
2019-02-17T23:42:53.155Z,68.90
2019-02-17T23:45:40.939Z,69.00
2019-02-17T23:48:09.387Z,69.00
2019-02-17T23:50:57.142Z,69.20
2019-02-17T23:53:25.664Z,69.20
2019-02-17T23:55:54.099Z,69.40
2019-02-17T23:58:22.521Z,69.50
